ENTC/TOS METAR and TAF weather

Enter ICAO airport designator
Station Type Date Time Source
ENTC METAR 2020/09/21 09:20 UTC NOAA

ENTC 210920Z 19018KT 9999 VCSH SCT023 BKN030 07/05 Q0977 TEMPO SHRA RMK WIND 2600FT 17031G44KT


Station Type Date Time Source
ENTC Decoded METAR 2020/09/21 09:20 UTC NOAA

Tromso / Langnes, Norway (ENTC) 69-41N 018-55E 10M
Sep 21, 2020 - 05:20 AM EDT / 2020.09.21 0920 UTC
Wind: from the S (190 degrees) at 21 MPH (18 KT):0
Visibility: greater than 7 mile(s):0
Sky conditions: mostly cloudy
Weather: showers in the vicinity
Temperature: 44 F (7 C)
Dew Point: 41 F (5 C)
Relative Humidity: 87%
Pressure (altimeter): 28.85 in. Hg (0977 hPa)
ob: ENTC 210920Z 19018KT 9999 VCSH SCT023 BKN030 07/05 Q0977 TEMPO SHRA RMK WIND 2600FT 17031G44KT
cycle: 9

Station Type Date Time Source
ENTC TAF 2020/09/21 07:36 UTC NOAA

TAF TAF
AMD ENTC 2107/2206 20018KT 9999 -RA FEW010 BKN025
TEMPO 2107/2110 RA BKN014
TEMPO 2115/2118 24025G35KT SHRA
TEMPO 2118/2206 28030G45KT RA BKN012

Example: see airport list